Time;durP1;ratioP1;P1;durP2;ratioP2;P2;SDS_P1;SDS_P2;PMS_P1;PMS_P2;Temp;Humidity;BMP_temperature;BMP_pressure;BME280_temperature;BME280_humidity;BME280_pressure;Samples;Min_cycle;Max_cycle;Signal;HPM_P1;HPM_P2
2021/11/19 00:02:17;;;;;;;26.65;4.88;;;;;;;10.62;100.00;101972.69;5091017;28;20350;-75
2021/11/19 00:04:44;;;;;;;23.60;5.75;;;;;;;10.64;100.00;101961.88;5090993;28;20450;-76
2021/11/19 00:07:10;;;;;;;24.10;5.30;;;;;;;10.66;100.00;101970.59;5090953;28;20036;-75
2021/11/19 00:09:37;;;;;;;31.58;6.72;;;;;;;10.66;100.00;101952.75;5091189;28;20467;-75
2021/11/19 00:12:05;;;;;;;33.97;7.07;;;;;;;10.62;100.00;101932.63;5090960;28;20047;-76
2021/11/19 00:14:30;;;;;;;28.92;6.03;;;;;;;10.62;100.00;101931.78;5089459;28;20467;-76
2021/11/19 00:17:03;;;;;;;26.85;8.07;;;;;;;10.67;100.00;101938.41;5073907;28;20064;-75
2021/11/19 00:19:30;;;;;;;28.30;6.68;;;;;;;10.62;100.00;101924.63;5091739;28;20483;-76
2021/11/19 00:21:56;;;;;;;29.33;7.10;;;;;;;10.66;100.00;101901.16;5073949;28;20031;-76
2021/11/19 00:24:22;;;;;;;;;;;;;;;10.71;100.00;101923.81;5090769;28;20049;-75
2021/11/19 00:26:48;;;;;;;;;;;;;;;10.73;100.00;101934.38;5091140;28;19972;-76
2021/11/19 00:29:15;;;;;;;22.52;6.53;;;;;;;10.74;100.00;101920.03;5090547;28;19911;-76
2021/11/19 00:31:42;;;;;;;20.88;6.35;;;;;;;10.79;100.00;101917.78;5090491;28;20073;-76
2021/11/19 00:34:07;;;;;;;26.25;6.53;;;;;;;10.72;100.00;101890.78;5089695;28;20363;-76
2021/11/19 00:36:35;;;;;;;30.80;7.50;;;;;;;10.76;100.00;101869.97;5072713;28;20056;-76
2021/11/19 00:39:05;;;;;;;26.85;6.47;;;;;;;10.77;100.00;101867.19;5089184;28;20062;-76
2021/11/19 00:41:32;;;;;;;40.80;7.45;;;;;;;10.83;100.00;101873.81;5089336;28;20038;-76
2021/11/19 00:43:57;;;;;;;25.73;6.57;;;;;;;10.77;100.00;101844.97;5088808;28;20054;-76
2021/11/19 00:46:24;;;;;;;31.95;7.45;;;;;;;10.85;100.00;101842.44;5089218;28;20108;-77
2021/11/19 00:48:50;;;;;;;18.58;5.03;;;;;;;10.85;100.00;101828.25;5090052;28;20039;-76
2021/11/19 00:51:21;;;;;;;31.02;8.52;;;;;;;10.84;100.00;101816.72;5090104;28;20024;-76
2021/11/19 00:53:50;;;;;;;32.50;6.85;;;;;;;10.87;100.00;101812.94;5072054;28;20200;-77
2021/11/19 00:56:19;;;;;;;27.70;5.57;;;;;;;10.83;100.00;101804.34;5089010;28;20036;-76
2021/11/19 00:58:46;;;;;;;27.80;6.85;;;;;;;10.80;100.00;101788.59;5088862;28;20031;-77
2021/11/19 01:01:20;;;;;;;37.42;8.07;;;;;;;10.82;100.00;101789.31;5072302;28;20042;-76
2021/11/19 01:03:46;;;;;;;25.15;5.32;;;;;;;10.83;100.00;101787.47;5088616;28;20506;-77
2021/11/19 01:06:13;;;;;;;29.05;7.07;;;;;;;10.78;100.00;101767.34;5071938;28;20354;-76
2021/11/19 01:08:39;;;;;;;39.22;7.40;;;;;;;10.85;100.00;101766.81;5090096;28;20079;-77
2021/11/19 01:11:06;;;;;;;;;;;;;;;10.88;100.00;101767.34;5089345;28;20028;-77
2021/11/19 01:13:35;;;;;;;30.63;6.13;;;;;;;10.86;100.00;101742.59;5088373;28;20222;-77
2021/11/19 01:16:06;;;;;;;27.85;6.22;;;;;;;10.88;100.00;101756.69;5088727;28;20024;-77
2021/11/19 01:18:39;;;;;;;24.63;5.85;;;;;;;10.88;100.00;101751.34;5089851;28;20367;-77
2021/11/19 01:21:28;;;;;;;26.63;6.45;;;;;;;10.85;100.00;101743.59;5071636;28;20131;-76
2021/11/19 01:23:55;;;;;;;25.70;5.97;;;;;;;10.82;100.00;101727.88;5088789;28;20043;-77
2021/11/19 01:26:27;;;;;;;20.52;5.95;;;;;;;10.96;100.00;101729.28;5088089;28;20100;-76
2021/11/19 01:28:56;;;;;;;28.73;5.85;;;;;;;10.87;100.00;101698.91;5071642;28;20100;-76
2021/11/19 01:31:29;;;;;;;27.88;5.72;;;;;;;10.91;100.00;101697.63;5071491;28;20441;-76
2021/11/19 01:34:01;;;;;;;22.20;6.65;;;;;;;10.94;100.00;101696.50;5088002;28;20063;-76
2021/11/19 01:36:29;;;;;;;32.45;6.80;;;;;;;10.88;100.00;101673.03;5088133;28;20055;-76
2021/11/19 01:39:27;;;;;;;23.10;6.70;;;;;;;10.91;100.00;101652.22;5075484;28;20044;-75
2021/11/19 01:42:20;;;;;;;31.80;7.15;;;;;;;10.96;100.00;101655.31;5072186;28;20138;-75
2021/11/19 01:45:07;;;;;;;21.20;5.85;;;;;;;10.89;100.00;101635.47;5071097;28;20032;-75
2021/11/19 01:47:36;;;;;;;25.05;6.38;;;;;;;10.93;100.00;101657.41;5087964;28;20028;-75
2021/11/19 01:50:09;;;;;;;23.20;7.30;;;;;;;10.97;100.00;101648.13;5087876;28;20039;-75
2021/11/19 01:52:41;;;;;;;28.65;5.10;;;;;;;10.88;100.00;101623.09;5087838;28;20028;-76
2021/11/19 01:55:15;;;;;;;23.10;6.00;;;;;;;10.91;100.00;101625.50;5070978;28;20481;-75
2021/11/19 01:57:52;;;;;;;25.20;5.43;;;;;;;10.98;100.00;101631.13;5088000;28;20066;-75
2021/11/19 02:00:33;;;;;;;24.67;6.03;;;;;;;10.95;100.00;101626.88;5088070;28;20038;-76
2021/11/19 02:03:00;;;;;;;19.65;5.68;;;;;;;10.98;100.00;101623.94;5087558;28;20089;-76
2021/11/19 02:05:59;;;;;;;21.20;5.57;;;;;;;11.07;100.00;101632.91;5088006;28;20054;-77
2021/11/19 02:08:27;;;;;;;23.70;6.10;;;;;;;10.99;100.00;101609.59;5071042;28;20055;-76
2021/11/19 02:11:39;;;;;;;17.23;4.20;;;;;;;10.98;100.00;101602.56;5087673;28;20024;-77
2021/11/19 02:14:36;;;;;;;23.90;5.88;;;;;;;10.96;100.00;101585.84;5070796;28;20089;-77
2021/11/19 02:17:06;;;;;;;37.05;5.90;;;;;;;10.97;100.00;101613.38;5070927;28;20453;-77
2021/11/19 02:19:54;;;;;;;18.15;5.20;;;;;;;10.99;100.00;101606.06;5087728;28;20479;-77
2021/11/19 02:22:25;;;;;;;24.63;4.95;;;;;;;11.00;100.00;101615.75;5070539;28;20044;-77
2021/11/19 02:25:01;;;;;;;21.30;5.47;;;;;;;11.08;100.00;101621.25;5070583;28;20036;-77
2021/11/19 02:27:40;;;;;;;16.80;4.22;;;;;;;11.08;100.00;101615.91;5087376;28;20630;-77
2021/11/19 02:30:10;;;;;;;17.38;4.78;;;;;;;11.01;100.00;101595.25;5087641;28;20032;-77
2021/11/19 02:32:48;;;;;;;24.58;4.30;;;;;;;11.01;100.00;101600.59;5087455;28;20480;-77
2021/11/19 02:35:20;;;;;;;19.00;4.70;;;;;;;11.01;100.00;101600.59;5086900;28;20384;-77
2021/11/19 02:37:51;;;;;;;16.58;4.25;;;;;;;10.96;100.00;101601.88;5088708;28;20034;-77
2021/11/19 02:40:25;;;;;;;24.15;5.22;;;;;;;10.91;100.00;101590.78;5091035;28;20027;-76
2021/11/19 02:42:58;;;;;;;20.70;5.18;;;;;;;11.00;100.00;101599.72;5091295;28;20546;-77
2021/11/19 02:45:38;;;;;;;18.90;4.35;;;;;;;11.00;100.00;101607.75;5091713;28;20231;-77
2021/11/19 02:48:06;;;;;;;25.27;6.25;;;;;;;10.98;100.00;101604.41;5074655;28;20089;-77
2021/11/19 02:50:35;;;;;;;24.33;5.30;;;;;;;10.93;100.00;101596.81;5074800;28;20065;-77
2021/11/19 02:53:03;;;;;;;19.25;5.10;;;;;;;10.94;100.00;101601.16;5091177;28;20063;-77
2021/11/19 02:55:34;;;;;;;23.50;5.82;;;;;;;10.96;100.00;101614.38;5091462;28;20036;-77
2021/11/19 02:58:00;;;;;;;21.63;5.38;;;;;;;11.01;100.00;101601.44;5074508;28;20032;-77
2021/11/19 03:00:35;;;;;;;26.35;6.25;;;;;;;10.92;100.00;101586.25;5091342;28;20473;-77
2021/11/19 03:03:01;;;;;;;23.83;6.07;;;;;;;10.95;100.00;101600.16;5090982;28;20050;-77
2021/11/19 03:05:28;;;;;;;24.08;5.70;;;;;;;10.91;100.00;101589.91;5091242;28;20032;-77
2021/11/19 03:07:56;;;;;;;33.00;8.57;;;;;;;10.96;100.00;101591.19;5090861;28;20028;-77
2021/11/19 03:10:34;;;;;;;36.55;7.20;;;;;;;10.98;100.00;101591.03;5091070;28;20036;-77
2021/11/19 03:13:05;;;;;;;30.95;7.38;;;;;;;10.98;100.00;101599.06;5090833;28;20043;-77
2021/11/19 03:15:35;;;;;;;36.72;9.07;;;;;;;10.97;100.00;101578.66;5074084;28;20028;-76
2021/11/19 03:18:01;;;;;;;23.98;6.40;;;;;;;10.95;100.00;101596.66;5074147;28;20412;-77
2021/11/19 03:20:26;;;;;;;30.17;8.60;;;;;;;10.95;100.00;101592.16;5091069;28;20036;-77
2021/11/19 03:22:54;;;;;;;21.17;7.00;;;;;;;10.98;100.00;101599.91;5090716;28;20603;-77
2021/11/19 03:25:26;;;;;;;33.85;6.93;;;;;;;10.97;100.00;101608.88;5091669;28;20039;-77
2021/11/19 03:27:55;;;;;;;23.58;6.88;;;;;;;10.95;100.00;101608.19;5074362;28;20039;-76
2021/11/19 03:30:27;;;;;;;23.90;6.45;;;;;;;10.94;100.00;101611.00;5090843;28;20676;-77
2021/11/19 03:32:53;;;;;;;23.63;6.60;;;;;;;10.97;100.00;101610.72;5090316;28;20036;-77
2021/11/19 03:35:20;;;;;;;17.85;5.47;;;;;;;10.98;100.00;101615.09;5090406;28;20043;-77
2021/11/19 03:37:49;;;;;;;21.80;5.68;;;;;;;10.95;100.00;101602.84;5090586;28;20449;-76
2021/11/19 03:40:20;;;;;;;20.15;5.78;;;;;;;10.97;100.00;101608.88;5073760;28;20032;-77
2021/11/19 03:42:48;;;;;;;22.13;5.07;;;;;;;10.97;100.00;101614.22;5090533;28;20544;-76
2021/11/19 03:45:17;;;;;;;22.05;5.70;;;;;;;10.99;100.00;101606.91;5091231;28;20032;-76
2021/11/19 03:47:49;;;;;;;25.13;5.95;;;;;;;11.05;100.00;101618.88;5090172;28;20081;-76
2021/11/19 03:50:24;;;;;;;14.95;4.45;;;;;;;11.08;100.00;101609.72;5091102;28;20024;-76
2021/11/19 03:52:50;;;;;;;24.80;5.60;;;;;;;10.98;100.00;101601.72;5090070;28;20430;-76
2021/11/19 03:55:27;;;;;;;24.45;6.57;;;;;;;11.04;100.00;101605.63;5089781;28;20043;-76
2021/11/19 03:57:55;;;;;;;19.27;5.45;;;;;;;11.03;100.00;101610.16;5074532;28;20055;-76
2021/11/19 04:00:28;;;;;;;16.73;4.85;;;;;;;11.02;100.00;101602.25;5091232;28;20039;-75
2021/11/19 04:02:55;;;;;;;24.05;5.78;;;;;;;11.01;100.00;101604.09;5091024;28;20101;-76
2021/11/19 04:05:21;;;;;;;23.05;4.97;;;;;;;11.08;100.00;101604.38;5091169;28;20276;-76
2021/11/19 04:07:47;;;;;;;17.02;4.45;;;;;;;11.09;100.00;101606.03;5090980;28;20028;-76
2021/11/19 04:10:16;;;;;;;25.23;5.22;;;;;;;11.08;100.00;101607.03;5074472;28;20028;-76
2021/11/19 04:12:42;;;;;;;29.25;6.28;;;;;;;11.07;100.00;101600.00;5090925;28;20036;-76
2021/11/19 04:15:12;;;;;;;26.92;5.75;;;;;;;11.05;100.00;101601.97;5090634;28;20043;-76
2021/11/19 04:17:40;;;;;;;20.60;5.43;;;;;;;11.04;100.00;101614.50;5074470;28;20028;-76
2021/11/19 04:20:07;;;;;;;;;;;;;;;11.05;100.00;101607.31;5074533;28;20031;-76
2021/11/19 04:22:33;;;;;;;29.17;8.77;;;;;;;11.06;100.00;101609.00;5073830;28;19908;-76
2021/11/19 04:25:02;;;;;;;27.10;6.32;;;;;;;11.02;100.00;101611.13;5073795;28;20051;-76
2021/11/19 04:27:33;;;;;;;20.38;5.57;;;;;;;11.01;100.00;101608.59;5074305;28;20042;-76
2021/11/19 04:30:12;;;;;;;20.10;7.25;;;;;;;11.03;100.00;101617.31;5090661;28;20066;-76
2021/11/19 04:32:38;;;;;;;28.02;6.45;;;;;;;10.86;100.00;101585.00;5090490;28;20027;-76
2021/11/19 04:35:05;;;;;;;32.45;8.75;;;;;;;10.95;100.00;101610.84;5072914;28;20032;-76
2021/11/19 04:37:30;;;;;;;24.48;6.22;;;;;;;11.01;100.00;101624.66;5073520;28;20467;-77
2021/11/19 04:39:59;;;;;;;22.52;6.65;;;;;;;10.98;100.00;101623.94;5090524;28;20489;-76
2021/11/19 04:42:25;;;;;;;21.90;6.57;;;;;;;10.99;100.00;101614.94;5090558;28;20042;-76
2021/11/19 04:44:51;;;;;;;33.58;8.35;;;;;;;10.97;100.00;101621.41;5073257;28;20054;-76
2021/11/19 04:47:17;;;;;;;30.42;6.93;;;;;;;11.02;100.00;101629.00;5090347;28;20465;-76
2021/11/19 04:49:43;;;;;;;25.58;6.03;;;;;;;11.02;100.00;101632.50;5073394;28;20039;-77
2021/11/19 04:52:11;;;;;;;25.20;5.90;;;;;;;10.96;100.00;101631.25;5090122;28;20040;-76
2021/11/19 04:54:38;;;;;;;17.20;5.40;;;;;;;10.98;100.00;101634.63;5089924;28;20036;-76
2021/11/19 04:57:04;;;;;;;29.48;6.43;;;;;;;11.07;100.00;101642.75;5090228;28;20115;-76
2021/11/19 04:59:31;;;;;;;25.50;6.32;;;;;;;11.02;100.00;101621.81;5072012;28;20625;-76
2021/11/19 05:02:02;;;;;;;27.52;5.35;;;;;;;10.97;100.00;101622.25;5089531;28;20535;-76
2021/11/19 05:04:59;;;;;;;22.60;6.40;;;;;;;10.97;100.00;101627.59;5090191;28;20047;-76
2021/11/19 05:07:25;;;;;;;21.80;6.03;;;;;;;11.01;100.00;101611.28;5090321;28;20083;-76
2021/11/19 05:09:52;;;;;;;19.98;4.63;;;;;;;11.09;100.00;101614.91;5073222;28;20372;-76
2021/11/19 05:12:25;;;;;;;32.40;6.33;;;;;;;11.01;100.00;101592.59;5073115;28;20127;-76
2021/11/19 05:14:51;;;;;;;25.23;5.80;;;;;;;11.04;100.00;101605.63;5072680;28;20035;-76
2021/11/19 05:17:18;;;;;;;15.65;4.03;;;;;;;10.99;100.00;101593.56;5073011;28;20028;-76
2021/11/19 05:19:44;;;;;;;18.50;4.70;;;;;;;11.04;100.00;101589.59;5072606;28;20361;-77
2021/11/19 05:22:10;;;;;;;;;;;;;;;11.03;100.00;101593.25;5072423;28;20093;-76
2021/11/19 05:24:36;;;;;;;;;;;;;;;11.07;100.00;101589.31;5089060;28;19911;-76
2021/11/19 05:27:03;;;;;;;20.88;5.20;;;;;;;11.00;100.00;101583.69;5072842;28;20345;-77
2021/11/19 05:29:29;;;;;;;21.75;4.68;;;;;;;10.99;100.00;101587.38;5072485;28;20510;-77
2021/11/19 05:31:55;;;;;;;24.10;5.00;;;;;;;11.06;100.00;101601.00;5072698;28;20040;-77
2021/11/19 05:34:22;;;;;;;26.65;5.25;;;;;;;10.97;100.00;101584.84;5088756;28;20032;-77
2021/11/19 05:36:48;;;;;;;30.35;5.40;;;;;;;10.97;100.00;101595.53;5072523;28;20085;-77
2021/11/19 05:39:14;;;;;;;26.15;4.55;;;;;;;10.93;100.00;101594.16;5072461;28;20036;-77
2021/11/19 05:41:45;;;;;;;22.92;5.07;;;;;;;10.99;100.00;101593.56;5073012;28;20405;-77
2021/11/19 05:44:10;;;;;;;19.88;4.70;;;;;;;11.00;100.00;101602.41;5089193;28;20031;-77
2021/11/19 05:46:57;;;;;;;25.42;5.68;;;;;;;10.94;100.00;101585.13;5075371;28;20036;-77
2021/11/19 05:49:24;;;;;;;25.80;4.60;;;;;;;10.90;100.00;101594.41;5072381;28;20035;-76
2021/11/19 05:51:56;;;;;;;23.05;4.22;;;;;;;10.86;100.00;101581.50;5088890;28;20365;-76
2021/11/19 05:54:25;;;;;;;21.67;4.38;;;;;;;10.97;100.00;101600.03;5072004;28;20032;-78
2021/11/19 05:56:53;;;;;;;23.45;4.22;;;;;;;10.95;100.00;101597.50;5089134;28;20039;-76
2021/11/19 05:59:19;;;;;;;21.75;4.18;;;;;;;10.99;100.00;101604.25;5072233;28;20032;-76
2021/11/19 06:02:11;;;;;;;20.58;4.80;;;;;;;10.94;100.00;101601.16;5098490;28;20051;-76
2021/11/19 06:04:55;;;;;;;30.90;7.68;;;;;;;10.95;100.00;101597.50;5089975;28;20113;-77
2021/11/19 06:07:31;;;;;;;20.40;4.38;;;;;;;10.92;100.00;101599.63;5073480;28;20057;-77
2021/11/19 06:09:59;;;;;;;19.38;5.53;;;;;;;10.94;100.00;101600.31;5072489;28;20036;-76
2021/11/19 06:12:29;;;;;;;23.95;4.35;;;;;;;11.00;100.00;101610.41;5088037;28;20028;-76
2021/11/19 06:14:58;;;;;;;23.85;4.18;;;;;;;10.94;100.00;101590.47;5071645;28;20472;-76
2021/11/19 06:17:38;;;;;;;23.55;3.63;;;;;;;10.94;100.00;101601.16;5088816;28;20032;-76
2021/11/19 06:20:18;;;;;;;26.52;4.28;;;;;;;11.04;100.00;101600.28;5088844;28;20373;-76
2021/11/19 06:22:50;;;;;;;21.60;5.18;;;;;;;11.07;100.00;101598.16;5072286;28;20031;-76
2021/11/19 06:25:22;;;;;;;32.03;5.85;;;;;;;11.02;100.00;101575.53;5088490;28;20044;-76
2021/11/19 06:27:49;;;;;;;15.27;6.07;;;;;;;11.05;100.00;101588.59;5089538;28;20032;-76
2021/11/19 06:30:15;;;;;;;21.92;5.25;;;;;;;10.97;100.00;101579.50;5088674;28;20040;-76
2021/11/19 06:32:42;;;;;;;18.35;4.95;;;;;;;10.97;100.00;101589.34;5088632;28;20028;-76
2021/11/19 06:35:10;;;;;;;35.35;8.68;;;;;;;10.97;100.00;101592.00;5087764;28;20032;-76
2021/11/19 06:37:36;;;;;;;27.88;6.40;;;;;;;10.92;100.00;101596.94;5088449;28;20035;-75
2021/11/19 06:40:28;;;;;;;29.57;6.93;;;;;;;10.87;100.00;101610.75;5088791;28;20043;-76
2021/11/19 06:43:12;;;;;;;23.05;6.45;;;;;;;10.97;100.00;101614.22;5088695;28;20047;-76
2021/11/19 06:46:08;;;;;;;25.10;6.23;;;;;;;10.92;100.00;101619.16;5088502;28;20115;-76
2021/11/19 06:48:43;;;;;;;30.27;6.72;;;;;;;10.88;100.00;101606.22;5088472;28;20040;-75
2021/11/19 06:51:29;;;;;;;28.33;7.75;;;;;;;10.85;100.00;101612.72;5098388;28;20452;-76
2021/11/19 06:54:05;;;;;;;22.17;6.40;;;;;;;10.85;100.00;101615.38;5088098;28;20028;-76
2021/11/19 06:56:51;;;;;;;37.47;7.00;;;;;;;10.83;100.00;101620.00;5088938;28;20051;-76
2021/11/19 06:59:26;;;;;;;33.08;6.80;;;;;;;10.84;100.00;101629.72;5088462;28;20059;-75
2021/11/19 07:01:51;;;;;;;20.97;7.23;;;;;;;10.90;100.00;101653.19;5088362;28;20445;-76
2021/11/19 07:04:17;;;;;;;25.47;7.00;;;;;;;10.89;100.00;101646.16;5071118;28;20027;-76
2021/11/19 07:06:43;;;;;;;44.90;7.32;;;;;;;10.88;100.00;101655.16;5088227;28;20334;-76
2021/11/19 07:09:12;;;;;;;35.95;7.30;;;;;;;10.92;100.00;101653.91;5088266;28;20047;-76
2021/11/19 07:11:40;;;;;;;27.17;7.05;;;;;;;10.92;100.00;101659.22;5071832;28;20546;-76
2021/11/19 07:14:07;;;;;;;29.13;6.97;;;;;;;10.91;100.00;101648.69;5071177;28;20111;-76
2021/11/19 07:16:33;;;;;;;30.05;6.95;;;;;;;10.94;100.00;101665.28;5088328;28;20461;-76
2021/11/19 07:19:00;;;;;;;30.00;7.35;;;;;;;10.95;100.00;101666.94;5087873;28;20119;-76
2021/11/19 07:21:27;;;;;;;31.10;6.45;;;;;;;10.99;100.00;101671.03;5088231;28;20619;-76
2021/11/19 07:23:54;;;;;;;24.73;6.38;;;;;;;10.96;100.00;101663.31;5072257;28;20063;-76
2021/11/19 07:26:25;;;;;;;24.88;6.75;;;;;;;10.93;100.00;101652.06;5075267;28;20038;-76
2021/11/19 07:28:51;;;;;;;29.73;6.47;;;;;;;10.93;100.00;101657.41;5091946;28;20043;-76
2021/11/19 07:31:36;;;;;;;26.27;6.57;;;;;;;10.97;100.00;101662.31;5093063;28;20062;-76
2021/11/19 07:34:17;;;;;;;38.10;7.20;;;;;;;10.94;100.00;101662.63;5092122;28;20044;-76
2021/11/19 07:37:13;;;;;;;25.45;6.38;;;;;;;10.92;100.00;101672.59;5078496;28;20381;-76
2021/11/19 07:39:58;;;;;;;32.67;7.20;;;;;;;10.94;100.00;101675.97;5092123;28;20424;-76
2021/11/19 07:42:41;;;;;;;28.00;6.75;;;;;;;10.96;100.00;101679.34;5091690;28;20028;-76
2021/11/19 07:45:13;;;;;;;27.80;7.82;;;;;;;11.05;100.00;101682.13;5075229;28;20032;-76
2021/11/19 07:47:51;;;;;;;23.70;5.95;;;;;;;11.05;100.00;101668.78;5091648;28;20081;-76
2021/11/19 07:50:22;;;;;;;20.23;5.53;;;;;;;11.09;100.00;101664.84;5074843;28;20032;-76
2021/11/19 07:52:48;;;;;;;29.90;6.00;;;;;;;11.03;100.00;101652.03;5094085;28;20059;-75
2021/11/19 07:55:14;;;;;;;27.47;6.60;;;;;;;11.04;100.00;101657.25;5075354;28;20410;-76
2021/11/19 07:57:39;;;;;;;25.20;6.70;;;;;;;11.08;100.00;101676.53;5091403;28;20052;-76
2021/11/19 08:00:16;;;;;;;48.97;9.17;;;;;;;11.07;100.00;101670.31;5074415;28;20036;-76
2021/11/19 08:02:47;;;;;;;25.95;6.75;;;;;;;11.05;100.00;101669.66;5091073;28;20051;-76
2021/11/19 08:05:17;;;;;;;28.60;7.00;;;;;;;11.07;100.00;101666.81;5091130;28;20039;-76
2021/11/19 08:08:01;;;;;;;35.38;6.43;;;;;;;11.06;100.00;101667.81;5091185;28;20051;-76
2021/11/19 08:10:30;;;;;;;32.63;7.07;;;;;;;11.04;100.00;101675.94;5090992;28;20036;-76
2021/11/19 08:12:55;;;;;;;45.88;7.65;;;;;;;11.10;100.00;101690.59;5073818;28;20040;-76
2021/11/19 08:15:27;;;;;;;35.75;8.25;;;;;;;11.07;100.00;101685.50;5074464;28;20075;-76
2021/11/19 08:17:57;;;;;;;26.75;6.10;;;;;;;11.01;100.00;101676.25;5091025;28;20484;-76
2021/11/19 08:20:36;;;;;;;26.38;7.03;;;;;;;11.04;100.00;101681.31;5075012;28;20123;-77
2021/11/19 08:23:07;;;;;;;38.60;7.65;;;;;;;11.08;100.00;101697.91;5090664;28;20425;-76
2021/11/19 08:25:33;;;;;;;36.28;7.07;;;;;;;10.97;100.00;101690.88;5091688;28;20036;-76
2021/11/19 08:27:59;;;;;;;24.48;5.30;;;;;;;10.96;100.00;101690.03;5073561;28;20048;-76
2021/11/19 08:30:33;;;;;;;29.55;5.60;;;;;;;10.98;100.00;101698.75;5091753;28;20149;-76
2021/11/19 08:33:01;;;;;;;31.00;6.28;;;;;;;10.97;100.00;101717.59;5090450;28;20024;-77
2021/11/19 08:35:27;;;;;;;34.17;8.02;;;;;;;11.02;100.00;101719.84;5088870;28;20465;-76
2021/11/19 08:37:54;;;;;;;30.67;6.45;;;;;;;10.96;100.00;101687.38;5090538;28;20028;-77
2021/11/19 08:40:22;;;;;;;29.13;8.73;;;;;;;10.98;100.00;101704.09;5072275;28;20116;-76
2021/11/19 08:42:47;;;;;;;32.35;6.68;;;;;;;10.90;100.00;101687.09;5073604;28;20043;-76
2021/11/19 08:45:17;;;;;;;29.70;5.63;;;;;;;10.93;100.00;101689.47;5090165;28;20457;-77
2021/11/19 08:47:44;;;;;;;27.70;6.45;;;;;;;10.94;100.00;101697.34;5090228;28;20753;-76
2021/11/19 08:50:12;;;;;;;23.45;6.15;;;;;;;10.91;100.00;101686.09;5090293;28;20040;-77
2021/11/19 08:52:38;;;;;;;19.50;5.55;;;;;;;10.96;100.00;101692.72;5073262;28;20457;-76
2021/11/19 08:55:06;;;;;;;27.00;7.38;;;;;;;10.93;100.00;101685.00;5090834;28;20032;-77
2021/11/19 08:57:32;;;;;;;21.48;5.78;;;;;;;11.03;100.00;101700.13;5073275;28;20020;-76
2021/11/19 08:59:58;;;;;;;24.35;6.97;;;;;;;11.05;100.00;101687.47;5090189;28;20036;-76
2021/11/19 09:02:25;;;;;;;22.27;5.53;;;;;;;11.14;100.00;101686.63;5073063;28;20046;-76
2021/11/19 09:04:54;;;;;;;23.60;4.85;;;;;;;11.12;100.00;101672.56;5089647;28;20122;-76
2021/11/19 09:07:19;;;;;;;20.25;6.45;;;;;;;11.11;100.00;101668.22;5089919;28;20040;-76
2021/11/19 09:09:46;;;;;;;24.75;5.78;;;;;;;11.13;100.00;101663.56;5090897;28;20045;-76
2021/11/19 09:12:14;;;;;;;29.20;5.40;;;;;;;11.16;100.00;101668.63;5073040;28;20043;-76
2021/11/19 09:14:40;;;;;;;26.42;5.32;;;;;;;11.09;100.00;101659.50;5088802;28;20040;-76
2021/11/19 09:17:31;;;;;;;24.30;6.65;;;;;;;11.14;100.00;101660.75;5089374;28;20024;-76
2021/11/19 09:20:29;;;;;;;30.95;5.28;;;;;;;11.23;100.00;101674.25;5089765;28;20047;-76
2021/11/19 09:23:17;;;;;;;24.10;5.38;;;;;;;11.24;100.00;101666.09;5089400;28;20460;-76
2021/11/19 09:25:46;;;;;;;22.83;6.78;;;;;;;11.21;100.00;101663.69;5089686;28;20051;-77
2021/11/19 09:28:13;;;;;;;18.25;5.13;;;;;;;11.27;100.00;101676.47;5089604;28;20023;-76
2021/11/19 09:30:43;;;;;;;27.75;6.45;;;;;;;11.29;100.00;101673.66;5072540;28;20454;-76
2021/11/19 09:33:13;;;;;;;19.17;4.78;;;;;;;11.27;100.00;101662.28;5089813;28;20028;-76
2021/11/19 09:35:39;;;;;;;21.90;5.07;;;;;;;11.23;100.00;101661.72;5089510;28;20040;-76
2021/11/19 09:38:06;;;;;;;23.05;5.93;;;;;;;11.25;100.00;101672.28;5087736;28;20040;-77
2021/11/19 09:40:42;;;;;;;22.40;5.50;;;;;;;11.25;100.00;101666.91;5087867;28;20036;-77
2021/11/19 09:43:21;;;;;;;20.52;4.18;;;;;;;11.26;100.00;101668.59;5071988;28;20042;-76
2021/11/19 09:46:09;;;;;;;16.90;4.13;;;;;;;11.36;100.00;101675.63;5088873;28;20047;-76
2021/11/19 09:48:55;;;;;;;24.75;5.68;;;;;;;11.31;100.00;101655.66;5072131;28;20097;-76
2021/11/19 09:52:07;;;;;;;25.23;6.28;;;;;;;11.29;100.00;101662.97;5089892;28;20032;-76
2021/11/19 09:55:13;;;;;;;28.95;5.75;;;;;;;11.26;100.00;101663.25;5088825;28;20039;-76
2021/11/19 09:57:48;;;;;;;19.73;5.47;;;;;;;11.29;100.00;101668.31;5089215;28;20039;-76
2021/11/19 10:00:40;;;;;;;21.85;4.95;;;;;;;11.27;100.00;101662.28;5072177;28;20135;-76
2021/11/19 10:03:21;;;;;;;20.30;4.57;;;;;;;11.28;100.00;101671.97;5088729;28;20457;-76
2021/11/19 10:05:49;;;;;;;15.82;4.60;;;;;;;11.27;100.00;101671.13;5089000;28;20032;-76
2021/11/19 10:08:42;;;;;;;26.63;6.80;;;;;;;11.27;100.00;101665.78;5089773;28;20582;-76
2021/11/19 10:11:15;;;;;;;21.08;3.70;;;;;;;11.30;100.00;101676.19;5072073;28;20051;-76
2021/11/19 10:14:20;;;;;;;19.65;4.50;;;;;;;11.32;100.00;101655.50;5088425;28;20043;-76
2021/11/19 10:16:56;;;;;;;16.50;3.83;;;;;;;11.33;100.00;101667.91;5072050;28;20465;-76
2021/11/19 10:19:24;;;;;;;;;;;;;;;11.39;100.00;101677.16;5089348;28;20119;-76
2021/11/19 10:22:12;;;;;;;22.70;4.85;;;;;;;11.35;100.00;101663.22;5089736;28;19969;-76
2021/11/19 10:24:53;;;;;;;22.48;4.43;;;;;;;11.31;100.00;101655.66;5088607;28;20040;-76
2021/11/19 10:27:23;;;;;;;12.82;3.58;;;;;;;11.32;100.00;101657.34;5088779;28;20028;-76
2021/11/19 10:29:53;;;;;;;27.15;6.57;;;;;;;11.33;100.00;101664.34;5088762;28;20040;-76
2021/11/19 10:32:22;;;;;;;23.90;4.25;;;;;;;11.27;100.00;101652.41;5088455;28;20028;-76
2021/11/19 10:35:16;;;;;;;22.00;4.00;;;;;;;11.38;100.00;101667.47;5087843;28;20074;-76
2021/11/19 10:38:13;;;;;;;17.37;4.47;;;;;;;11.43;100.00;101648.31;5089474;28;20334;-77
2021/11/19 10:41:09;;;;;;;18.08;3.95;;;;;;;11.40;100.00;101660.97;5088639;28;20373;-76
2021/11/19 10:43:59;;;;;;;33.35;5.63;;;;;;;11.40;100.00;101638.72;5088274;28;20031;-76
2021/11/19 10:46:56;;;;;;;19.48;4.38;;;;;;;11.40;100.00;101644.94;5071630;28;20048;-77
2021/11/19 10:49:43;;;;;;;20.67;3.65;;;;;;;11.39;100.00;101645.91;5088244;28;20096;-76
2021/11/19 10:52:26;;;;;;;20.10;4.28;;;;;;;11.40;100.00;101628.88;5089183;28;20048;-77
2021/11/19 10:55:21;;;;;;;20.65;5.60;;;;;;;11.44;100.00;101644.63;5088286;28;20028;-76
2021/11/19 10:58:23;;;;;;;18.60;4.37;;;;;;;11.47;100.00;101655.03;5088385;28;20060;-77
2021/11/19 11:01:05;;;;;;;31.38;6.28;;;;;;;11.44;100.00;101639.28;5092478;28;20043;-76
2021/11/19 11:03:37;;;;;;;24.88;4.97;;;;;;;11.41;100.00;101651.94;5092165;28;20459;-76
2021/11/19 11:06:14;;;;;;;21.52;5.18;;;;;;;11.41;100.00;101633.22;5075556;28;20361;-76
2021/11/19 11:08:43;;;;;;;14.95;4.00;;;;;;;11.47;100.00;101629.16;5075344;28;20043;-76
2021/11/19 11:11:19;;;;;;;25.00;5.88;;;;;;;11.46;100.00;101630.13;5093333;28;20131;-77
2021/11/19 11:14:04;;;;;;;30.85;6.18;;;;;;;11.45;99.90;101632.94;5091913;28;20562;-77
2021/11/19 11:16:38;;;;;;;20.42;4.78;;;;;;;11.50;100.00;101628.84;5075354;28;20092;-76
2021/11/19 11:19:09;;;;;;;20.52;5.38;;;;;;;11.63;99.27;101644.53;5092060;28;20043;-77
2021/11/19 11:21:38;;;;;;;22.13;5.53;;;;;;;11.59;99.24;101621.78;5092139;28;20040;-76
2021/11/19 11:24:33;;;;;;;19.02;4.28;;;;;;;11.51;99.58;101635.88;5074857;28;20028;-77
2021/11/19 11:27:32;;;;;;;28.08;5.90;;;;;;;11.50;99.82;101636.03;5092851;28;20040;-76
2021/11/19 11:30:03;;;;;;;23.50;3.70;;;;;;;11.46;99.92;101616.75;5092030;28;20082;-77
2021/11/19 11:32:50;;;;;;;21.60;4.47;;;;;;;11.45;99.83;101609.72;5092892;28;20043;-77
2021/11/19 11:35:58;;;;;;;16.50;4.07;;;;;;;11.48;100.00;101629.97;5091250;28;20051;-77
2021/11/19 11:38:44;;;;;;;20.55;4.38;;;;;;;11.50;99.60;101634.19;5073833;28;20043;-76
2021/11/19 11:41:34;;;;;;;24.80;4.88;;;;;;;11.43;99.80;101634.94;5073761;28;20040;-76